Flight Track Log - Related Links

Times and Time Zones

All times are in EDT time to prevent confusion due to time zone crossing. See the SWA1910 flight status page for this flight to view local times or setup timezone preferences in your user account.

Time Position Orientation Groundspeed Altitude Reporting Facility
EDT Latitude Longitude Course Direction KTS MPH feet Rate Location/Type
Thu 05:35:33 PM 42.9667 -78.7000 40° Northeast 151 174 3,200  Level Buffalo TRACON
Thu 05:37:09 PM 42.8942 -78.6506 153° Southeast 242 278 7,900 3,154 Climbing Cleveland Center
Thu 05:38:09 PM 42.8406 -78.6833 204° Southwest 238 274 11,400 3,200 Climbing Cleveland Center
Thu 05:39:09 PM 42.7706 -78.7419 212° Southwest 260 299 14,300 2,050 Climbing Cleveland Center
Thu 05:40:09 PM 42.6706 -78.7308 175° South 311 358 15,500 2,200 Climbing Cleveland Center
Thu 05:41:09 PM 42.5681 -78.7083 171° South 345 397 18,700 4,750 Climbing Cleveland Center
Thu 05:42:09 PM 42.4592 -78.6892 173° South 380 437 25,000 3,150 Climbing Cleveland Center
Thu 05:43:09 PM 42.3581 -78.6161 152° Southeast 380 437 25,000  Level Cleveland Center
Thu 05:44:09 PM 42.2772 -78.5261 141° Southeast 370 426 25,000  Level Cleveland Center
Thu 05:45:09 PM 42.1942 -78.4336 140° Southeast 376 433 25,000  Level Cleveland Center
Thu 05:46:09 PM 42.1092 -78.3383 140° Southeast 389 448 25,000  Level Cleveland Center
Thu 05:47:09 PM 42.0281 -78.2461 140° Southeast 389 448 25,000  Level Cleveland Center
Thu 05:49:29 PM 41.8425 -78.0406 140° Southeast 398 458 25,000  Level New York Center
Thu 05:50:28 PM 41.7589 -77.9453 140° Southeast 398 458 25,000  Level New York Center
Thu 05:51:28 PM 41.6728 -77.8500 140° Southeast 398 458 25,000  Level New York Center
Thu 05:52:30 PM 41.5886 -77.7578 141° Southeast 398 458 25,000  Level New York Center
Thu 05:53:30 PM 41.5047 -77.6631 140° Southeast 398 458 25,000 -300 Level New York Center
Thu 05:54:30 PM 41.4150 -77.5903 149° Southeast 393 452 24,400 -807 Descending New York Center
Thu 05:55:29 PM 41.3133 -77.5469 162° South 385 443 23,400 -1,000 Descending New York Center
Thu 05:56:30 PM 41.2139 -77.5039 162° South 380 437 22,400 -992 Descending New York Center
Thu 05:57:30 PM 41.1181 -77.4639 163° South 370 426 21,400 -1,017 Descending New York Center
Thu 05:58:28 PM 41.0244 -77.4272 164° South 365 420 20,400 -1,017 Descending New York Center
Thu 05:59:28 PM 40.9286 -77.3850 162° South 365 420 19,400 -950 Descending New York Center
Thu 06:00:28 PM 40.8372 -77.3458 162° South 360 414 18,500 -934 Descending New York Center
Thu 06:01:30 PM 40.7433 -77.3067 162° South 354 407 17,500 -1,131 Descending New York Center
Thu 06:02:30 PM 40.6433 -77.2672 163° South 354 407 16,200 -1,119 Descending New York Center
Thu 06:03:28 PM 40.5661 -77.2353 163° South 347 399 15,300 -1,000 Descending New York Center
Thu 06:04:30 PM 40.4703 -77.1961 163° South 336 387 14,200 -984 Descending New York Center
Thu 06:05:30 PM 40.3928 -77.1617 161° South 331 381 13,300 -1,011 Descending New York Center
Thu 06:07:28 PM 40.2167 -77.0833 161° South 319 367 11,200 -1,079 Descending Potomac TRACON
Thu 06:08:28 PM 40.1333 -77.0500 163° South 305 351 10,100 -650 Descending Potomac TRACON
Thu 06:09:28 PM 40.0500 -77.0167 163° South 288 331 9,900 -104 Descending Potomac TRACON
Thu 06:10:23 PM 39.9833 -77.0000 169° South 283 326 9,900  Level Potomac TRACON
Thu 06:11:23 PM 39.9167 -76.9667 159° South 284 327 9,900 -250 Level Potomac TRACON
Thu 06:12:23 PM 39.8333 -76.9333 163° South 284 327 9,400 -750 Descending Potomac TRACON
Thu 06:13:23 PM 39.7667 -76.9000 159° South 280 322 8,400 -1,000 Descending Potomac TRACON
Thu 06:14:23 PM 39.6833 -76.8667 163° South 278 320 7,400 -1,000 Descending Potomac TRACON
Thu 06:15:23 PM 39.6167 -76.8500 169° South 269 310 6,400 -1,000 Descending Potomac TRACON
Thu 06:16:23 PM 39.5333 -76.8333 171° South 262 302 5,400 -800 Descending Potomac TRACON
Thu 06:17:23 PM 39.4833 -76.8833 218° Southwest 253 291 4,800 -800 Descending Potomac TRACON
Thu 06:18:23 PM 39.4167 -76.9000 191° South 258 297 3,800 -900 Descending Potomac TRACON
Thu 06:19:23 PM 39.3500 -76.8833 169° South 251 289 3,000 -400 Descending Potomac TRACON
Thu 06:20:23 PM 39.2833 -76.8667 169° South 242 278 3,000 -200 Level Potomac TRACON
Thu 06:21:23 PM 39.2333 -76.8500 166° South 197 227 2,600 -496 Descending Potomac TRACON
Thu 06:22:24 PM 39.1833 -76.8167 153° Southeast 159 183 2,000 -595 Descending Potomac TRACON
Thu 06:23:24 PM 39.1833 -76.7667 90° East 137 158 1,400 -600 Descending Potomac TRACON
Thu 06:24:24 PM 39.1833 -76.7333 90° East 121 139 800 -600 Descending Potomac TRACON
Thu 06:26:00 PM 39.1667 -76.6667 116° Southeast  Level FlightAware Approximate
Thu 06:33:00 PM 39.1754 -76.6683 116° Southeast  Level Estimated

Login

Don't have an account? Register now (free) for customized features, flight alerts, and more!